createdAt,value
2022-12-31T00:01:54.848Z,100648.06
2022-12-31T00:04:27.690Z,100642.81
2022-12-31T00:06:57.813Z,100660.31
2022-12-31T00:09:28.721Z,100660.38
2022-12-31T00:11:58.997Z,100661.56
2022-12-31T00:14:29.162Z,100660.63
2022-12-31T00:16:59.554Z,100672.78
2022-12-31T00:19:32.826Z,100663.16
2022-12-31T00:22:03.038Z,100659.69
2022-12-31T00:24:35.953Z,100662.38
2022-12-31T00:27:06.352Z,100664.00
2022-12-31T00:29:36.969Z,100676.25
2022-12-31T00:32:09.579Z,100676.34
2022-12-31T00:34:42.478Z,100674.50
2022-12-31T00:37:16.913Z,100677.09
2022-12-31T00:39:47.068Z,100678.88
2022-12-31T00:42:17.326Z,100680.84
2022-12-31T00:44:47.676Z,100686.91
2022-12-31T00:47:17.922Z,100687.00
2022-12-31T00:49:50.769Z,100686.06
2022-12-31T00:52:22.049Z,100684.53
2022-12-31T00:54:52.239Z,100680.38
2022-12-31T00:57:22.446Z,100687.44
2022-12-31T00:59:52.966Z,100677.81
2022-12-31T01:02:23.822Z,100690.84
2022-12-31T01:04:56.931Z,100698.47
2022-12-31T01:07:27.225Z,100692.59
2022-12-31T01:09:57.792Z,100702.72
2022-12-31T01:12:28.115Z,100701.88
2022-12-31T01:14:58.238Z,100702.63
2022-12-31T01:17:28.464Z,100701.88
2022-12-31T01:20:01.649Z,100700.75
2022-12-31T01:22:33.141Z,100695.53
2022-12-31T01:25:03.353Z,100691.22
2022-12-31T01:27:33.582Z,100682.41
2022-12-31T01:30:03.776Z,100693.81
2022-12-31T01:32:34.748Z,100693.81
2022-12-31T01:35:08.331Z,100695.44
2022-12-31T01:37:39.188Z,100704.16
2022-12-31T01:40:10.582Z,100698.91
2022-12-31T01:42:40.947Z,100702.31
2022-12-31T01:45:15.024Z,100707.63
2022-12-31T01:47:46.669Z,100708.47
2022-12-31T01:50:24.102Z,100707.63
2022-12-31T01:52:57.781Z,100699.69
2022-12-31T01:55:33.303Z,100699.69
2022-12-31T01:58:08.115Z,100701.38
2022-12-31T02:00:38.819Z,100703.16
2022-12-31T02:03:10.637Z,100709.31
2022-12-31T02:05:50.214Z,100711.78
2022-12-31T02:08:21.039Z,100703.94
2022-12-31T02:10:51.249Z,100703.94
2022-12-31T02:13:21.533Z,100703.09
2022-12-31T02:16:00.852Z,100697.75
2022-12-31T02:18:38.055Z,100683.13
2022-12-31T02:21:33.956Z,100698.69
2022-12-31T02:24:33.754Z,100706.63
2022-12-31T02:27:08.432Z,100700.53
2022-12-31T02:30:06.692Z,100689.22
2022-12-31T02:32:53.470Z,100695.44
2022-12-31T02:35:27.990Z,100694.59
2022-12-31T02:38:07.761Z,100698.91
2022-12-31T02:40:41.110Z,100703.22
2022-12-31T02:43:11.323Z,100705.09
2022-12-31T02:45:48.143Z,100694.78
2022-12-31T02:48:32.592Z,100700.38
2022-12-31T02:51:15.419Z,100705.09
2022-12-31T02:54:11.712Z,100712.34
2022-12-31T02:56:48.532Z,100705.34
2022-12-31T02:59:39.062Z,100692.69
2022-12-31T03:02:19.716Z,100706.84
2022-12-31T03:04:54.364Z,100698.13
2022-12-31T03:07:27.021Z,100692.25
2022-12-31T03:09:57.746Z,100691.13
2022-12-31T03:12:42.533Z,100689.63
2022-12-31T03:15:22.599Z,100688.38
2022-12-31T03:17:58.838Z,100687.66
2022-12-31T03:20:45.340Z,100682.28
2022-12-31T03:23:19.165Z,100681.44
2022-12-31T03:25:46.911Z,100675.41
2022-12-31T03:28:20.762Z,100688.28
2022-12-31T03:30:52.638Z,100690.22
2022-12-31T03:33:27.241Z,100700.63
2022-12-31T03:35:57.443Z,100707.69
2022-12-31T03:38:27.850Z,100702.38
2022-12-31T03:40:58.266Z,100697.00
2022-12-31T03:43:28.592Z,100695.28
2022-12-31T03:45:59.973Z,100707.63
2022-12-31T03:48:32.869Z,100705.00
2022-12-31T03:51:03.035Z,100710.25
2022-12-31T03:53:34.979Z,100706.00
2022-12-31T03:56:05.216Z,100705.94
2022-12-31T03:58:35.424Z,100703.56
2022-12-31T04:01:05.708Z,100707.03
2022-12-31T04:03:38.566Z,100696.38
2022-12-31T04:06:08.903Z,100697.16
2022-12-31T04:08:39.088Z,100693.69
2022-12-31T04:11:09.738Z,100699.69
2022-12-31T04:13:39.930Z,100682.28
2022-12-31T04:16:10.271Z,100683.97
2022-12-31T04:18:43.228Z,100678.72
2022-12-31T04:21:13.421Z,100681.28
2022-12-31T04:23:43.556Z,100678.81
2022-12-31T04:26:13.762Z,100674.50
2022-12-31T04:28:43.935Z,100677.19
2022-12-31T04:31:14.109Z,100676.34
2022-12-31T04:33:46.910Z,100673.72
2022-12-31T04:36:17.103Z,100671.19
2022-12-31T04:38:47.289Z,100672.34
2022-12-31T04:41:21.050Z,100683.84
2022-12-31T04:43:53.873Z,100684.81
2022-12-31T04:46:25.892Z,100686.66
2022-12-31T04:48:59.251Z,100677.34
2022-12-31T04:51:30.827Z,100679.13
2022-12-31T04:54:01.595Z,100687.19
2022-12-31T04:56:32.214Z,100678.25
2022-12-31T04:59:02.430Z,100681.28
2022-12-31T05:01:33.283Z,100675.28
2022-12-31T05:04:06.273Z,100683.34
2022-12-31T05:06:36.543Z,100684.44
2022-12-31T05:09:06.818Z,100687.19
2022-12-31T05:11:38.042Z,100677.88
2022-12-31T05:14:08.239Z,100680.78
2022-12-31T05:16:38.483Z,100687.91
2022-12-31T05:19:11.502Z,100703.56
2022-12-31T05:21:41.953Z,100692.03
2022-12-31T05:24:12.171Z,100686.78
2022-12-31T05:26:42.343Z,100681.34
2022-12-31T05:29:12.699Z,100673.53
2022-12-31T05:31:42.926Z,100673.53
2022-12-31T05:34:16.011Z,100682.97
2022-12-31T05:36:46.229Z,100693.28
2022-12-31T05:39:16.325Z,100700.22
2022-12-31T05:41:46.579Z,100696.59
2022-12-31T05:44:19.294Z,100694.69
2022-12-31T05:46:52.460Z,100685.91
2022-12-31T05:49:25.580Z,100692.75
2022-12-31T05:51:56.115Z,100685.75
2022-12-31T05:54:26.272Z,100696.06
2022-12-31T05:56:56.557Z,100701.91
2022-12-31T05:59:26.896Z,100705.31
2022-12-31T06:01:57.662Z,100710.41
2022-12-31T06:04:30.590Z,100711.31
2022-12-31T06:07:00.807Z,100718.03
2022-12-31T06:09:31.135Z,100719.50
2022-12-31T06:12:01.292Z,100717.09
2022-12-31T06:14:31.502Z,100715.19
2022-12-31T06:17:01.800Z,100713.34
2022-12-31T06:19:34.574Z,100713.97
2022-12-31T06:22:04.752Z,100709.47
2022-12-31T06:24:34.885Z,100700.75
2022-12-31T06:27:05.145Z,100715.56
2022-12-31T06:29:36.019Z,100721.84
2022-12-31T06:32:06.344Z,100720.13
2022-12-31T06:34:39.060Z,100722.75
2022-12-31T06:37:09.318Z,100734.09
2022-12-31T06:39:39.464Z,100745.31
2022-12-31T06:42:09.641Z,100753.00
2022-12-31T06:44:39.817Z,100759.03
2022-12-31T06:47:09.947Z,100771.91
2022-12-31T06:49:42.931Z,100771.69
2022-12-31T06:52:13.183Z,100778.63
2022-12-31T06:54:44.108Z,100787.19
2022-12-31T06:57:14.899Z,100789.47
2022-12-31T06:59:46.951Z,100795.44
2022-12-31T07:02:49.848Z,100784.63
2022-12-31T07:05:31.802Z,100787.03
2022-12-31T07:08:17.176Z,100781.47
2022-12-31T07:10:55.215Z,100778.16
2022-12-31T07:13:53.394Z,100779.31
2022-12-31T07:16:39.705Z,100780.94
2022-12-31T07:19:19.953Z,100795.81
2022-12-31T07:21:56.073Z,100787.72
2022-12-31T07:24:27.536Z,100799.66
2022-12-31T07:27:15.072Z,100790.78
2022-12-31T07:30:05.205Z,100777.47
2022-12-31T07:32:58.828Z,100798.59
2022-12-31T07:35:37.136Z,100801.75
2022-12-31T07:38:22.085Z,100798.72
2022-12-31T07:41:05.545Z,100796.72
2022-12-31T07:43:52.639Z,100793.38
2022-12-31T07:46:35.249Z,100791.47
2022-12-31T07:49:06.128Z,100802.25
2022-12-31T07:51:36.899Z,100805.25
2022-12-31T07:54:13.838Z,100805.38
2022-12-31T07:56:45.843Z,100810.88
2022-12-31T07:59:25.547Z,100805.03
2022-12-31T08:02:04.440Z,100803.28
2022-12-31T08:04:44.104Z,100798.56
2022-12-31T08:07:22.919Z,100802.97
2022-12-31T08:10:04.300Z,100798.81
2022-12-31T08:12:38.393Z,100804.06
2022-12-31T08:15:16.052Z,100812.88
2022-12-31T08:17:47.264Z,100818.19
2022-12-31T08:20:19.474Z,100831.16
2022-12-31T08:23:18.237Z,100821.97
2022-12-31T08:26:13.716Z,100819.94
2022-12-31T08:28:56.824Z,100839.66
2022-12-31T08:31:34.948Z,100849.00
2022-12-31T08:34:12.772Z,100846.53
2022-12-31T08:36:52.485Z,100842.13
2022-12-31T08:39:34.509Z,100838.81
2022-12-31T08:42:15.729Z,100852.88
2022-12-31T08:44:52.541Z,100860.44
2022-12-31T08:47:35.481Z,100853.41
2022-12-31T08:50:16.027Z,100856.88
2022-12-31T08:52:46.813Z,100844.41
2022-12-31T08:55:19.683Z,100853.16
2022-12-31T08:58:05.326Z,100845.69
2022-12-31T09:00:36.966Z,100844.78
2022-12-31T09:03:44.826Z,100849.94
2022-12-31T09:06:21.970Z,100844.16
2022-12-31T09:08:58.990Z,100840.97
2022-12-31T09:11:36.015Z,100822.31
2022-12-31T09:14:21.716Z,100815.47
2022-12-31T09:17:02.290Z,100804.59
2022-12-31T09:19:32.666Z,100814.09
2022-12-31T09:22:03.711Z,100820.72
2022-12-31T09:24:37.595Z,100817.75
2022-12-31T09:27:14.366Z,100809.72
2022-12-31T09:29:58.917Z,100825.47
2022-12-31T09:32:42.161Z,100832.09
2022-12-31T09:35:25.397Z,100838.03
2022-12-31T09:38:05.292Z,100830.31
2022-12-31T09:40:53.244Z,100823.56
2022-12-31T09:44:07.999Z,100832.59
2022-12-31T09:47:19.713Z,100838.75
2022-12-31T09:50:25.646Z,100820.88
2022-12-31T09:53:16.335Z,100822.50
2022-12-31T09:55:52.664Z,100810.41
2022-12-31T09:58:41.004Z,100840.72
2022-12-31T10:01:24.560Z,100830.19
2022-12-31T10:04:33.100Z,100824.88
2022-12-31T10:07:12.103Z,100811.22
2022-12-31T10:10:16.207Z,100814.13
2022-12-31T10:13:32.546Z,100815.63
2022-12-31T10:16:16.483Z,100805.94
2022-12-31T10:19:05.180Z,100818.19
2022-12-31T10:21:50.383Z,100816.69
2022-12-31T10:24:48.600Z,100825.44
2022-12-31T10:27:37.224Z,100829.84
2022-12-31T10:30:18.087Z,100832.84
2022-12-31T10:33:01.624Z,100840.66
2022-12-31T10:35:38.829Z,100845.44
2022-12-31T10:38:29.589Z,100843.19
2022-12-31T10:41:34.974Z,100843.66
2022-12-31T10:44:41.799Z,100850.44
2022-12-31T10:47:37.011Z,100846.94
2022-12-31T10:50:34.507Z,100853.78
2022-12-31T10:53:44.443Z,100847.19
2022-12-31T10:56:49.762Z,100823.00
2022-12-31T10:59:54.269Z,100827.66
2022-12-31T11:03:01.705Z,100829.13
2022-12-31T11:06:03.589Z,100837.97
2022-12-31T11:08:56.729Z,100820.09
2022-12-31T11:11:38.750Z,100804.78
2022-12-31T11:14:47.380Z,100791.84
2022-12-31T11:17:40.667Z,100817.72
2022-12-31T11:20:30.252Z,100819.22
2022-12-31T11:23:12.625Z,100820.06
2022-12-31T11:25:57.871Z,100820.16
2022-12-31T11:29:04.348Z,100823.56
2022-12-31T11:31:50.274Z,100812.63
2022-12-31T11:34:38.307Z,100816.50
2022-12-31T11:37:27.679Z,100818.94
2022-12-31T11:40:05.236Z,100818.69
2022-12-31T11:42:53.623Z,100813.31
2022-12-31T11:45:46.962Z,100815.00
2022-12-31T11:48:32.917Z,100818.16
2022-12-31T11:51:25.653Z,100811.75
2022-12-31T11:54:18.060Z,100818.00
2022-12-31T11:56:54.044Z,100816.22
2022-12-31T11:59:24.894Z,100820.41
2022-12-31T12:02:01.239Z,100824.75
2022-12-31T12:04:31.540Z,100825.59
2022-12-31T12:07:04.552Z,100820.78
2022-12-31T12:09:38.299Z,100822.97
2022-12-31T12:12:09.702Z,100814.22
2022-12-31T12:14:42.608Z,100811.66
2022-12-31T12:17:17.630Z,100803.03
2022-12-31T12:19:50.028Z,100802.09
2022-12-31T12:22:26.628Z,100800.34
2022-12-31T12:24:58.491Z,100806.06
2022-12-31T12:27:32.641Z,100802.00
2022-12-31T12:30:12.773Z,100795.41
2022-12-31T12:32:54.576Z,100795.16
2022-12-31T12:35:29.141Z,100797.81
2022-12-31T12:38:07.692Z,100794.69
2022-12-31T12:40:38.450Z,100794.47
2022-12-31T12:43:09.340Z,100794.38
2022-12-31T12:45:51.193Z,100803.84
2022-12-31T12:48:34.201Z,100782.03
2022-12-31T12:51:16.056Z,100796.59
2022-12-31T12:53:59.019Z,100797.34
2022-12-31T12:56:40.062Z,100797.13
2022-12-31T12:59:38.070Z,100796.13
2022-12-31T13:02:30.736Z,100795.47
2022-12-31T13:05:13.835Z,100791.00
2022-12-31T13:07:55.643Z,100798.56
2022-12-31T13:10:45.691Z,100807.66
2022-12-31T13:13:33.289Z,100802.28
2022-12-31T13:16:14.910Z,100793.91
2022-12-31T13:18:55.934Z,100801.63
2022-12-31T13:21:38.016Z,100827.78
2022-12-31T13:24:18.420Z,100829.38
2022-12-31T13:26:58.098Z,100844.06
2022-12-31T13:29:31.960Z,100841.34
2022-12-31T13:32:08.663Z,100837.19
2022-12-31T13:34:44.191Z,100833.72
2022-12-31T13:37:25.490Z,100836.72
2022-12-31T13:40:02.381Z,100832.97
2022-12-31T13:42:42.791Z,100824.31
2022-12-31T13:45:19.807Z,100817.53
2022-12-31T13:47:55.332Z,100822.31
2022-12-31T13:50:32.485Z,100822.41
2022-12-31T13:53:08.596Z,100838.97
2022-12-31T13:55:45.186Z,100842.53
2022-12-31T13:58:28.035Z,100851.47
2022-12-31T14:01:04.757Z,100866.50
2022-12-31T14:03:43.295Z,100871.50
2022-12-31T14:06:21.973Z,100862.09
2022-12-31T14:08:52.373Z,100862.28
2022-12-31T14:11:35.070Z,100846.50
2022-12-31T14:14:17.401Z,100851.72
2022-12-31T14:16:55.231Z,100865.72
2022-12-31T14:19:41.058Z,100855.56
2022-12-31T14:22:20.062Z,100854.63
2022-12-31T14:24:52.619Z,100861.41
2022-12-31T14:27:28.700Z,100853.88
2022-12-31T14:30:05.055Z,100862.03
2022-12-31T14:33:11.545Z,100871.47
2022-12-31T14:36:10.769Z,100875.53
2022-12-31T14:38:56.068Z,100874.69
2022-12-31T14:41:46.338Z,100876.56
2022-12-31T14:44:32.782Z,100869.84
2022-12-31T14:47:16.379Z,100872.47
2022-12-31T14:49:55.726Z,100887.41
2022-12-31T14:52:32.958Z,100881.38
2022-12-31T14:55:27.024Z,100874.34
2022-12-31T15:00:56.252Z,100892.75
2022-12-31T15:03:45.908Z,100900.00
2022-12-31T15:06:34.966Z,100892.03
2022-12-31T15:09:11.639Z,100871.91
2022-12-31T15:11:53.175Z,100870.06
2022-12-31T15:14:39.281Z,100865.44
2022-12-31T15:17:22.758Z,100876.72
2022-12-31T15:20:23.023Z,100881.97
2022-12-31T15:22:57.096Z,100883.50
2022-12-31T15:25:40.005Z,100879.88
2022-12-31T15:28:27.748Z,100889.63
2022-12-31T15:31:20.074Z,100887.84
2022-12-31T15:34:02.877Z,100899.38
2022-12-31T15:36:35.872Z,100895.06
2022-12-31T15:39:28.410Z,100903.94
2022-12-31T15:44:53.539Z,100893.88
2022-12-31T15:47:31.220Z,100906.41
2022-12-31T15:50:04.895Z,100896.56
2022-12-31T15:52:44.699Z,100914.06
2022-12-31T15:55:28.047Z,100906.94
2022-12-31T15:58:02.575Z,100899.06
2022-12-31T16:00:47.635Z,100897.34
2022-12-31T16:03:25.285Z,100882.50
2022-12-31T16:06:01.595Z,100904.56
2022-12-31T16:08:34.692Z,100924.75
2022-12-31T16:11:09.261Z,100937.56
2022-12-31T16:13:43.222Z,100931.94
2022-12-31T16:16:24.153Z,100913.38
2022-12-31T16:18:55.181Z,100905.56
2022-12-31T16:21:35.557Z,100914.38
2022-12-31T16:24:08.771Z,100907.44
2022-12-31T16:26:47.984Z,100907.19
2022-12-31T16:29:20.294Z,100902.69
2022-12-31T16:31:53.262Z,100892.06
2022-12-31T16:34:26.194Z,100894.03
2022-12-31T16:37:01.723Z,100922.38
2022-12-31T16:39:34.785Z,100911.94
2022-12-31T16:42:20.972Z,100908.44
2022-12-31T16:44:52.196Z,100907.03
2022-12-31T16:47:25.494Z,100913.22
2022-12-31T16:50:04.181Z,100923.75
2022-12-31T16:52:38.550Z,100919.34
2022-12-31T16:55:12.063Z,100924.91
2022-12-31T16:57:47.053Z,100929.63
2022-12-31T17:00:21.242Z,100924.38
2022-12-31T17:02:59.695Z,100921.50
2022-12-31T17:05:30.726Z,100917.81
2022-12-31T17:08:01.103Z,100930.00
2022-12-31T17:10:37.542Z,100908.91
2022-12-31T17:13:27.677Z,100908.06
2022-12-31T17:16:00.764Z,100910.75
2022-12-31T17:18:38.410Z,100915.19
2022-12-31T17:21:11.699Z,100924.00
2022-12-31T17:23:44.260Z,100922.13
2022-12-31T17:26:16.787Z,100918.72
2022-12-31T17:28:53.002Z,100920.47
2022-12-31T17:31:33.291Z,100940.66
2022-12-31T17:34:32.581Z,100936.22
2022-12-31T17:37:21.320Z,100933.25
2022-12-31T17:39:53.888Z,100934.09
2022-12-31T17:42:30.061Z,100892.06
2022-12-31T17:45:05.130Z,100919.06
2022-12-31T17:47:41.216Z,100926.00
2022-12-31T17:50:22.781Z,100940.84
2022-12-31T17:52:53.119Z,100943.41
2022-12-31T17:55:23.402Z,100945.19
2022-12-31T17:57:56.202Z,100923.47
2022-12-31T18:00:29.901Z,100927.44
2022-12-31T18:03:00.229Z,100926.34
2022-12-31T18:05:30.577Z,100939.66
2022-12-31T18:08:00.792Z,100941.44
2022-12-31T18:10:34.709Z,100936.97
2022-12-31T18:13:07.891Z,100929.16
2022-12-31T18:15:40.728Z,100926.53
2022-12-31T18:18:25.271Z,100924.91
2022-12-31T18:20:58.632Z,100930.34
2022-12-31T18:23:34.349Z,100943.31
2022-12-31T18:26:04.643Z,100934.56
2022-12-31T18:28:35.085Z,100929.31
2022-12-31T18:31:08.140Z,100925.16
2022-12-31T18:33:38.375Z,100926.84
2022-12-31T18:36:13.092Z,100942.63
2022-12-31T18:38:44.027Z,100944.63
2022-12-31T18:41:20.449Z,100951.38
2022-12-31T18:43:50.948Z,100949.09
2022-12-31T18:46:27.081Z,100949.75
2022-12-31T18:48:57.365Z,100948.94
2022-12-31T18:51:32.043Z,100951.66
2022-12-31T18:54:02.903Z,100932.88
2022-12-31T18:56:33.207Z,100932.72
2022-12-31T18:59:03.401Z,100933.47
2022-12-31T19:01:39.888Z,100942.13
2022-12-31T19:04:18.802Z,100942.13
2022-12-31T19:06:56.161Z,100950.69
2022-12-31T19:09:45.063Z,100941.13
2022-12-31T19:12:17.292Z,100935.94
2022-12-31T19:14:47.411Z,100951.22
2022-12-31T19:17:21.818Z,100932.72
2022-12-31T19:19:52.102Z,100930.25
2022-12-31T19:22:22.320Z,100927.91
2022-12-31T19:24:52.860Z,100928.16
2022-12-31T19:27:23.063Z,100938.84
2022-12-31T19:29:53.417Z,100924.28
2022-12-31T19:32:26.218Z,100919.19
2022-12-31T19:34:56.542Z,100923.78
2022-12-31T19:37:26.807Z,100921.34
2022-12-31T19:39:57.177Z,100918.03
2022-12-31T19:42:27.946Z,100925.38
2022-12-31T19:44:58.100Z,100921.16
2022-12-31T19:47:30.910Z,100925.63
2022-12-31T19:50:01.251Z,100920.69
2022-12-31T19:52:31.572Z,100916.56
2022-12-31T19:55:01.743Z,100914.25
2022-12-31T19:57:31.940Z,100919.06
2022-12-31T20:00:02.499Z,100923.63
2022-12-31T20:02:36.233Z,100929.19
2022-12-31T20:05:06.937Z,100933.78
2022-12-31T20:07:37.200Z,100928.16
2022-12-31T20:10:11.029Z,100934.19
2022-12-31T20:12:44.511Z,100925.53
2022-12-31T20:15:15.024Z,100917.88
2022-12-31T20:17:47.846Z,100922.38
2022-12-31T20:20:18.253Z,100914.72
2022-12-31T20:22:48.675Z,100909.66
2022-12-31T20:25:19.210Z,100905.41
2022-12-31T20:27:49.440Z,100901.31
2022-12-31T20:30:23.222Z,100902.41
2022-12-31T20:32:56.090Z,100910.28
2022-12-31T20:35:26.329Z,100908.72
2022-12-31T20:37:56.794Z,100913.13
2022-12-31T20:40:27.421Z,100921.22
2022-12-31T20:42:57.997Z,100919.72
2022-12-31T20:45:28.222Z,100925.19
2022-12-31T20:48:01.159Z,100922.72
2022-12-31T20:50:31.457Z,100922.78
2022-12-31T20:53:02.151Z,100910.69
2022-12-31T20:55:32.801Z,100913.44
2022-12-31T20:58:04.338Z,100915.38
2022-12-31T21:00:34.500Z,100907.66
2022-12-31T21:03:23.778Z,100913.00
2022-12-31T21:05:57.976Z,100909.81
2022-12-31T21:08:34.347Z,100913.44
2022-12-31T21:11:25.736Z,100911.97
2022-12-31T21:13:53.392Z,100919.97
2022-12-31T21:16:23.668Z,100921.63
2022-12-31T21:18:57.000Z,100921.47
2022-12-31T21:21:27.711Z,100912.81
2022-12-31T21:23:57.939Z,100902.47
2022-12-31T21:26:30.856Z,100912.34
2022-12-31T21:29:01.421Z,100910.88
2022-12-31T21:31:31.612Z,100921.44
2022-12-31T21:34:04.476Z,100926.91
2022-12-31T21:36:34.783Z,100930.22
2022-12-31T21:39:05.066Z,100925.22
2022-12-31T21:41:47.615Z,100938.09
2022-12-31T21:44:17.839Z,100937.25
2022-12-31T21:47:25.130Z,100944.41
2022-12-31T21:49:43.597Z,100947.09
2022-12-31T21:52:30.807Z,100945.25
2022-12-31T21:55:15.049Z,100940.31
2022-12-31T21:58:24.229Z,100955.09
2022-12-31T22:00:48.858Z,100960.56
2022-12-31T22:03:28.482Z,100953.88
2022-12-31T22:06:09.135Z,100959.25
2022-12-31T22:08:40.276Z,100971.84
2022-12-31T22:11:11.549Z,100967.66
2022-12-31T22:13:42.292Z,100962.44
2022-12-31T22:16:13.296Z,100959.88
2022-12-31T22:18:45.598Z,100959.09
2022-12-31T22:21:20.713Z,100968.72
2022-12-31T22:23:52.582Z,100968.84
2022-12-31T22:26:24.575Z,100964.63
2022-12-31T22:28:59.224Z,100956.28
2022-12-31T22:31:31.713Z,100963.16
2022-12-31T22:34:02.296Z,100952.28
2022-12-31T22:36:35.203Z,100963.41
2022-12-31T22:39:05.460Z,100966.03
2022-12-31T22:41:36.787Z,100964.97
2022-12-31T22:44:06.990Z,100959.66
2022-12-31T22:46:40.702Z,100968.44
2022-12-31T22:49:13.560Z,100955.63
2022-12-31T22:51:57.026Z,100962.56
2022-12-31T22:54:30.009Z,100950.59
2022-12-31T22:57:01.346Z,100942.00
2022-12-31T22:59:31.569Z,100949.31
2022-12-31T23:02:01.888Z,100950.25
2022-12-31T23:04:32.301Z,100938.03
2022-12-31T23:07:05.166Z,100941.47
2022-12-31T23:09:48.407Z,100939.78
2022-12-31T23:12:18.741Z,100952.19
2022-12-31T23:15:01.342Z,100960.94
2022-12-31T23:17:43.835Z,100965.34
2022-12-31T23:20:29.583Z,100962.06
2022-12-31T23:23:08.810Z,100961.28
2022-12-31T23:25:44.292Z,100957.94
2022-12-31T23:28:16.732Z,100961.47
2022-12-31T23:30:47.432Z,100963.47
2022-12-31T23:33:20.390Z,100968.78
2022-12-31T23:35:52.004Z,100967.97
2022-12-31T23:38:24.803Z,100965.31
2022-12-31T23:40:55.314Z,100979.31
2022-12-31T23:43:25.875Z,100977.59
2022-12-31T23:45:56.446Z,100982.78
2022-12-31T23:48:26.672Z,100986.31
2022-12-31T23:50:56.816Z,100982.13
2022-12-31T23:53:29.678Z,100979.69
2022-12-31T23:56:13.897Z,100964.97
2022-12-31T23:58:46.986Z,100963.56
